sensor_id;sensor_type;location;lat;lon;timestamp;temperature;humidity
12604;DHT22;6367;52.508;13.284;2022-12-07T00:01:19;7.50;99.90
12604;DHT22;6367;52.508;13.284;2022-12-07T00:03:46;7.50;99.90
12604;DHT22;6367;52.508;13.284;2022-12-07T00:06:14;7.40;99.90
12604;DHT22;6367;52.508;13.284;2022-12-07T00:08:40;7.30;99.90
12604;DHT22;6367;52.508;13.284;2022-12-07T00:11:14;7.40;99.90
12604;DHT22;6367;52.508;13.284;2022-12-07T00:13:40;7.40;99.90
12604;DHT22;6367;52.508;13.284;2022-12-07T00:16:16;7.40;99.90
12604;DHT22;6367;52.508;13.284;2022-12-07T00:18:42;7.40;99.90
12604;DHT22;6367;52.508;13.284;2022-12-07T00:21:17;8.00;99.90
12604;DHT22;6367;52.508;13.284;2022-12-07T00:23:45;7.30;99.90
12604;DHT22;6367;52.508;13.284;2022-12-07T00:26:13;7.30;99.90
12604;DHT22;6367;52.508;13.284;2022-12-07T00:28:39;7.30;99.90
12604;DHT22;6367;52.508;13.284;2022-12-07T00:31:07;7.30;99.90
12604;DHT22;6367;52.508;13.284;2022-12-07T00:33:34;7.30;99.90
12604;DHT22;6367;52.508;13.284;2022-12-07T00:36:00;7.30;99.90
12604;DHT22;6367;52.508;13.284;2022-12-07T00:38:28;7.60;99.90
12604;DHT22;6367;52.508;13.284;2022-12-07T00:40:59;7.20;99.90
12604;DHT22;6367;52.508;13.284;2022-12-07T00:43:25;7.20;99.90
12604;DHT22;6367;52.508;13.284;2022-12-07T00:45:52;7.00;99.90
12604;DHT22;6367;52.508;13.284;2022-12-07T00:48:18;7.00;99.90
12604;DHT22;6367;52.508;13.284;2022-12-07T00:50:44;7.00;99.90
12604;DHT22;6367;52.508;13.284;2022-12-07T00:53:09;7.00;99.90
12604;DHT22;6367;52.508;13.284;2022-12-07T00:55:36;7.50;99.90
12604;DHT22;6367;52.508;13.284;2022-12-07T00:58:02;6.90;99.90
12604;DHT22;6367;52.508;13.284;2022-12-07T01:00:28;6.90;99.90
12604;DHT22;6367;52.508;13.284;2022-12-07T01:02:53;6.80;99.90
12604;DHT22;6367;52.508;13.284;2022-12-07T01:05:19;6.90;99.90
12604;DHT22;6367;52.508;13.284;2022-12-07T01:07:45;7.20;99.90
12604;DHT22;6367;52.508;13.284;2022-12-07T01:10:12;6.90;99.90
12604;DHT22;6367;52.508;13.284;2022-12-07T01:12:38;7.00;99.90
12604;DHT22;6367;52.508;13.284;2022-12-07T01:15:04;6.90;99.90
12604;DHT22;6367;52.508;13.284;2022-12-07T01:17:30;6.90;99.90
12604;DHT22;6367;52.508;13.284;2022-12-07T01:19:56;7.00;99.90
12604;DHT22;6367;52.508;13.284;2022-12-07T01:22:22;6.90;99.90
12604;DHT22;6367;52.508;13.284;2022-12-07T01:24:47;7.00;99.90
12604;DHT22;6367;52.508;13.284;2022-12-07T01:27:14;7.00;99.90
12604;DHT22;6367;52.508;13.284;2022-12-07T01:29:39;7.00;99.90
12604;DHT22;6367;52.508;13.284;2022-12-07T01:32:05;7.00;99.90
12604;DHT22;6367;52.508;13.284;2022-12-07T01:34:31;7.00;99.90
12604;DHT22;6367;52.508;13.284;2022-12-07T01:36:57;6.90;99.90
12604;DHT22;6367;52.508;13.284;2022-12-07T01:39:23;6.90;99.90
12604;DHT22;6367;52.508;13.284;2022-12-07T01:41:48;7.40;99.90
12604;DHT22;6367;52.508;13.284;2022-12-07T01:44:18;7.40;99.90
12604;DHT22;6367;52.508;13.284;2022-12-07T01:46:47;7.40;99.90
12604;DHT22;6367;52.508;13.284;2022-12-07T01:49:17;7.10;99.90
12604;DHT22;6367;52.508;13.284;2022-12-07T01:51:45;6.80;99.90
12604;DHT22;6367;52.508;13.284;2022-12-07T01:54:13;7.20;99.90
12604;DHT22;6367;52.508;13.284;2022-12-07T01:56:44;6.90;99.90
12604;DHT22;6367;52.508;13.284;2022-12-07T01:59:11;6.80;99.90
12604;DHT22;6367;52.508;13.284;2022-12-07T02:01:38;6.90;99.90
12604;DHT22;6367;52.508;13.284;2022-12-07T02:04:04;7.10;99.90
12604;DHT22;6367;52.508;13.284;2022-12-07T02:06:31;7.10;99.90
12604;DHT22;6367;52.508;13.284;2022-12-07T02:08:57;7.00;99.90
12604;DHT22;6367;52.508;13.284;2022-12-07T02:11:22;6.80;99.90
12604;DHT22;6367;52.508;13.284;2022-12-07T02:13:48;6.60;99.90
12604;DHT22;6367;52.508;13.284;2022-12-07T02:16:18;6.60;99.90
12604;DHT22;6367;52.508;13.284;2022-12-07T02:24:08;6.40;99.90
12604;DHT22;6367;52.508;13.284;2022-12-07T02:29:23;6.30;99.90
12604;DHT22;6367;52.508;13.284;2022-12-07T02:34:44;6.40;99.90
12604;DHT22;6367;52.508;13.284;2022-12-07T02:37:29;6.30;99.90
12604;DHT22;6367;52.508;13.284;2022-12-07T02:40:17;6.40;99.90
12604;DHT22;6367;52.508;13.284;2022-12-07T02:42:50;6.30;99.90
12604;DHT22;6367;52.508;13.284;2022-12-07T02:45:20;6.60;99.90
12604;DHT22;6367;52.508;13.284;2022-12-07T02:47:48;6.20;99.90
12604;DHT22;6367;52.508;13.284;2022-12-07T02:50:21;6.20;99.90
12604;DHT22;6367;52.508;13.284;2022-12-07T02:52:46;6.20;99.90
12604;DHT22;6367;52.508;13.284;2022-12-07T02:55:13;6.20;99.90
12604;DHT22;6367;52.508;13.284;2022-12-07T02:58:06;6.20;99.90
12604;DHT22;6367;52.508;13.284;2022-12-07T03:01:09;6.20;99.90
12604;DHT22;6367;52.508;13.284;2022-12-07T03:03:31;6.30;99.90
12604;DHT22;6367;52.508;13.284;2022-12-07T03:06:22;6.30;99.90
12604;DHT22;6367;52.508;13.284;2022-12-07T03:09:20;6.50;99.90
12604;DHT22;6367;52.508;13.284;2022-12-07T03:11:52;6.30;99.90
12604;DHT22;6367;52.508;13.284;2022-12-07T03:14:34;6.20;99.90
12604;DHT22;6367;52.508;13.284;2022-12-07T03:17:14;6.20;99.90
12604;DHT22;6367;52.508;13.284;2022-12-07T03:19:43;6.30;99.90
12604;DHT22;6367;52.508;13.284;2022-12-07T03:22:12;6.40;99.90
12604;DHT22;6367;52.508;13.284;2022-12-07T03:24:53;6.30;99.90
12604;DHT22;6367;52.508;13.284;2022-12-07T03:27:27;6.40;99.90
12604;DHT22;6367;52.508;13.284;2022-12-07T03:30:00;6.40;99.90
12604;DHT22;6367;52.508;13.284;2022-12-07T03:37:37;6.30;99.90
12604;DHT22;6367;52.508;13.284;2022-12-07T03:42:37;6.20;99.90
12604;DHT22;6367;52.508;13.284;2022-12-07T03:45:04;6.20;99.90
12604;DHT22;6367;52.508;13.284;2022-12-07T03:50:19;6.20;99.90
12604;DHT22;6367;52.508;13.284;2022-12-07T03:53:08;6.20;99.90
12604;DHT22;6367;52.508;13.284;2022-12-07T03:55:38;6.30;99.90
12604;DHT22;6367;52.508;13.284;2022-12-07T03:58:09;6.20;99.90
12604;DHT22;6367;52.508;13.284;2022-12-07T04:00:36;6.20;99.90
12604;DHT22;6367;52.508;13.284;2022-12-07T04:03:02;6.20;99.90
12604;DHT22;6367;52.508;13.284;2022-12-07T04:05:28;6.10;99.90
12604;DHT22;6367;52.508;13.284;2022-12-07T04:07:54;6.20;99.90
12604;DHT22;6367;52.508;13.284;2022-12-07T04:10:20;6.80;99.90
12604;DHT22;6367;52.508;13.284;2022-12-07T04:12:46;6.20;99.90
12604;DHT22;6367;52.508;13.284;2022-12-07T04:15:11;6.10;99.90
12604;DHT22;6367;52.508;13.284;2022-12-07T04:17:37;6.20;99.90
12604;DHT22;6367;52.508;13.284;2022-12-07T04:20:04;6.30;99.90
12604;DHT22;6367;52.508;13.284;2022-12-07T04:22:30;6.30;99.90
12604;DHT22;6367;52.508;13.284;2022-12-07T04:24:56;6.30;99.90
12604;DHT22;6367;52.508;13.284;2022-12-07T04:27:21;6.20;99.90
12604;DHT22;6367;52.508;13.284;2022-12-07T04:29:47;6.30;99.90
12604;DHT22;6367;52.508;13.284;2022-12-07T04:32:12;6.20;99.90
12604;DHT22;6367;52.508;13.284;2022-12-07T04:34:38;6.30;99.90
12604;DHT22;6367;52.508;13.284;2022-12-07T04:37:04;6.30;99.90
12604;DHT22;6367;52.508;13.284;2022-12-07T04:39:32;6.30;99.90
12604;DHT22;6367;52.508;13.284;2022-12-07T04:41:58;6.30;99.90
12604;DHT22;6367;52.508;13.284;2022-12-07T04:44:26;6.40;99.90
12604;DHT22;6367;52.508;13.284;2022-12-07T04:46:53;6.40;99.90
12604;DHT22;6367;52.508;13.284;2022-12-07T04:49:19;6.40;99.90
12604;DHT22;6367;52.508;13.284;2022-12-07T04:51:45;6.40;99.90
12604;DHT22;6367;52.508;13.284;2022-12-07T04:54:12;6.40;99.90
12604;DHT22;6367;52.508;13.284;2022-12-07T04:56:37;6.90;99.90
12604;DHT22;6367;52.508;13.284;2022-12-07T04:59:04;6.50;99.90
12604;DHT22;6367;52.508;13.284;2022-12-07T05:01:30;6.90;99.90
12604;DHT22;6367;52.508;13.284;2022-12-07T05:03:55;6.60;99.90
12604;DHT22;6367;52.508;13.284;2022-12-07T05:06:21;6.70;99.90
12604;DHT22;6367;52.508;13.284;2022-12-07T05:08:47;6.70;99.90
12604;DHT22;6367;52.508;13.284;2022-12-07T05:11:13;6.70;99.90
12604;DHT22;6367;52.508;13.284;2022-12-07T05:14:00;7.30;99.90
12604;DHT22;6367;52.508;13.284;2022-12-07T05:16:25;6.80;99.90
12604;DHT22;6367;52.508;13.284;2022-12-07T05:18:51;6.80;99.90
12604;DHT22;6367;52.508;13.284;2022-12-07T05:21:17;6.90;99.90
12604;DHT22;6367;52.508;13.284;2022-12-07T05:23:43;6.90;99.90
12604;DHT22;6367;52.508;13.284;2022-12-07T05:26:09;7.30;99.90
12604;DHT22;6367;52.508;13.284;2022-12-07T05:28:35;6.90;99.90
12604;DHT22;6367;52.508;13.284;2022-12-07T05:31:00;6.90;99.90
12604;DHT22;6367;52.508;13.284;2022-12-07T05:33:26;7.30;99.90
12604;DHT22;6367;52.508;13.284;2022-12-07T05:35:51;6.90;99.90
12604;DHT22;6367;52.508;13.284;2022-12-07T05:38:17;7.20;99.90
12604;DHT22;6367;52.508;13.284;2022-12-07T05:40:43;7.50;99.90
12604;DHT22;6367;52.508;13.284;2022-12-07T05:43:08;7.00;99.90
12604;DHT22;6367;52.508;13.284;2022-12-07T05:45:34;7.00;99.90
12604;DHT22;6367;52.508;13.284;2022-12-07T05:48:00;7.10;99.90
12604;DHT22;6367;52.508;13.284;2022-12-07T05:50:25;7.50;99.90
12604;DHT22;6367;52.508;13.284;2022-12-07T05:52:51;7.10;99.90
12604;DHT22;6367;52.508;13.284;2022-12-07T05:55:17;7.20;99.90
12604;DHT22;6367;52.508;13.284;2022-12-07T05:57:42;7.10;99.90
12604;DHT22;6367;52.508;13.284;2022-12-07T06:00:31;7.00;99.90
12604;DHT22;6367;52.508;13.284;2022-12-07T06:02:57;6.90;99.90
12604;DHT22;6367;52.508;13.284;2022-12-07T06:05:22;7.00;99.90
12604;DHT22;6367;52.508;13.284;2022-12-07T06:07:49;7.20;99.90
12604;DHT22;6367;52.508;13.284;2022-12-07T06:10:15;7.00;99.90
12604;DHT22;6367;52.508;13.284;2022-12-07T06:12:41;7.10;99.90
12604;DHT22;6367;52.508;13.284;2022-12-07T06:15:09;7.20;99.90
12604;DHT22;6367;52.508;13.284;2022-12-07T06:17:36;7.20;99.90
12604;DHT22;6367;52.508;13.284;2022-12-07T06:20:02;7.20;99.90
12604;DHT22;6367;52.508;13.284;2022-12-07T06:22:28;7.20;99.90
12604;DHT22;6367;52.508;13.284;2022-12-07T06:24:53;7.60;99.90
12604;DHT22;6367;52.508;13.284;2022-12-07T06:27:19;7.30;99.90
12604;DHT22;6367;52.508;13.284;2022-12-07T06:29:45;7.40;99.90
12604;DHT22;6367;52.508;13.284;2022-12-07T06:32:10;7.90;99.90
12604;DHT22;6367;52.508;13.284;2022-12-07T06:34:37;7.40;99.90
12604;DHT22;6367;52.508;13.284;2022-12-07T06:37:03;7.60;99.90
12604;DHT22;6367;52.508;13.284;2022-12-07T06:39:29;7.40;99.90
12604;DHT22;6367;52.508;13.284;2022-12-07T06:41:56;7.40;99.90
12604;DHT22;6367;52.508;13.284;2022-12-07T06:44:22;7.90;99.90
12604;DHT22;6367;52.508;13.284;2022-12-07T06:46:49;7.40;99.90
12604;DHT22;6367;52.508;13.284;2022-12-07T06:49:15;7.50;99.90
12604;DHT22;6367;52.508;13.284;2022-12-07T06:51:41;7.40;99.90
12604;DHT22;6367;52.508;13.284;2022-12-07T06:54:11;7.30;99.90
12604;DHT22;6367;52.508;13.284;2022-12-07T06:56:37;7.40;99.90
12604;DHT22;6367;52.508;13.284;2022-12-07T06:59:04;7.80;99.90
12604;DHT22;6367;52.508;13.284;2022-12-07T07:01:31;7.60;99.90
12604;DHT22;6367;52.508;13.284;2022-12-07T07:03:57;7.60;99.90
12604;DHT22;6367;52.508;13.284;2022-12-07T07:06:23;8.20;99.90
12604;DHT22;6367;52.508;13.284;2022-12-07T07:08:49;7.50;99.90
12604;DHT22;6367;52.508;13.284;2022-12-07T07:11:15;7.70;99.90
12604;DHT22;6367;52.508;13.284;2022-12-07T07:13:40;8.10;99.90
12604;DHT22;6367;52.508;13.284;2022-12-07T07:16:07;7.70;99.90
12604;DHT22;6367;52.508;13.284;2022-12-07T07:18:32;7.70;99.90
12604;DHT22;6367;52.508;13.284;2022-12-07T07:20:58;7.70;99.90
12604;DHT22;6367;52.508;13.284;2022-12-07T07:23:24;7.70;99.90
12604;DHT22;6367;52.508;13.284;2022-12-07T07:25:50;7.70;99.90
12604;DHT22;6367;52.508;13.284;2022-12-07T07:28:16;7.70;99.90
12604;DHT22;6367;52.508;13.284;2022-12-07T07:30:42;7.80;99.90
12604;DHT22;6367;52.508;13.284;2022-12-07T07:33:09;8.30;99.90
12604;DHT22;6367;52.508;13.284;2022-12-07T07:35:35;7.70;99.90
12604;DHT22;6367;52.508;13.284;2022-12-07T07:38:01;7.70;99.90
12604;DHT22;6367;52.508;13.284;2022-12-07T07:40:27;7.70;99.90
12604;DHT22;6367;52.508;13.284;2022-12-07T07:42:55;7.60;99.90
12604;DHT22;6367;52.508;13.284;2022-12-07T07:45:23;7.60;99.90
12604;DHT22;6367;52.508;13.284;2022-12-07T07:47:49;7.90;99.90
12604;DHT22;6367;52.508;13.284;2022-12-07T07:50:15;7.80;99.90
12604;DHT22;6367;52.508;13.284;2022-12-07T07:52:41;7.70;99.90
12604;DHT22;6367;52.508;13.284;2022-12-07T07:55:07;7.60;99.90
12604;DHT22;6367;52.508;13.284;2022-12-07T07:57:37;7.70;99.90
12604;DHT22;6367;52.508;13.284;2022-12-07T08:00:11;7.70;99.90
12604;DHT22;6367;52.508;13.284;2022-12-07T08:02:37;7.70;99.90
12604;DHT22;6367;52.508;13.284;2022-12-07T08:05:03;7.80;99.90
12604;DHT22;6367;52.508;13.284;2022-12-07T08:07:29;7.70;99.90
12604;DHT22;6367;52.508;13.284;2022-12-07T08:09:54;7.70;99.90
12604;DHT22;6367;52.508;13.284;2022-12-07T08:12:20;7.80;99.90
12604;DHT22;6367;52.508;13.284;2022-12-07T08:14:45;7.80;99.90
12604;DHT22;6367;52.508;13.284;2022-12-07T08:17:12;7.80;99.90
12604;DHT22;6367;52.508;13.284;2022-12-07T08:19:37;7.90;99.90
12604;DHT22;6367;52.508;13.284;2022-12-07T08:22:03;8.10;99.90
12604;DHT22;6367;52.508;13.284;2022-12-07T08:24:29;8.00;99.90
12604;DHT22;6367;52.508;13.284;2022-12-07T08:26:54;8.00;99.90
12604;DHT22;6367;52.508;13.284;2022-12-07T08:29:20;8.40;99.90
12604;DHT22;6367;52.508;13.284;2022-12-07T08:31:46;7.90;99.90
12604;DHT22;6367;52.508;13.284;2022-12-07T08:34:12;8.00;99.90
12604;DHT22;6367;52.508;13.284;2022-12-07T08:36:38;8.00;99.90
12604;DHT22;6367;52.508;13.284;2022-12-07T08:39:04;8.00;99.90
12604;DHT22;6367;52.508;13.284;2022-12-07T08:41:29;7.90;99.90
12604;DHT22;6367;52.508;13.284;2022-12-07T08:43:55;7.90;99.90
12604;DHT22;6367;52.508;13.284;2022-12-07T08:46:37;8.20;99.90
12604;DHT22;6367;52.508;13.284;2022-12-07T08:49:10;7.90;99.90
12604;DHT22;6367;52.508;13.284;2022-12-07T08:51:37;8.00;99.90
12604;DHT22;6367;52.508;13.284;2022-12-07T08:54:07;8.00;99.90
12604;DHT22;6367;52.508;13.284;2022-12-07T08:56:34;8.50;99.90
12604;DHT22;6367;52.508;13.284;2022-12-07T08:59:00;8.00;99.90
12604;DHT22;6367;52.508;13.284;2022-12-07T09:01:26;8.00;99.90
12604;DHT22;6367;52.508;13.284;2022-12-07T09:03:52;8.50;99.90
12604;DHT22;6367;52.508;13.284;2022-12-07T09:06:18;7.90;99.90
12604;DHT22;6367;52.508;13.284;2022-12-07T09:08:48;7.90;99.90
12604;DHT22;6367;52.508;13.284;2022-12-07T09:11:15;7.80;99.80
12604;DHT22;6367;52.508;13.284;2022-12-07T09:13:41;7.90;99.90
12604;DHT22;6367;52.508;13.284;2022-12-07T09:16:07;7.90;99.90
12604;DHT22;6367;52.508;13.284;2022-12-07T09:18:33;7.80;99.70
12604;DHT22;6367;52.508;13.284;2022-12-07T09:20:58;7.80;99.80
12604;DHT22;6367;52.508;13.284;2022-12-07T09:23:24;7.80;99.70
12604;DHT22;6367;52.508;13.284;2022-12-07T09:25:50;7.80;99.80
12604;DHT22;6367;52.508;13.284;2022-12-07T09:28:15;7.90;99.80
12604;DHT22;6367;52.508;13.284;2022-12-07T09:30:48;7.90;99.70
12604;DHT22;6367;52.508;13.284;2022-12-07T09:33:14;7.90;99.80
12604;DHT22;6367;52.508;13.284;2022-12-07T09:35:50;7.90;99.70
12604;DHT22;6367;52.508;13.284;2022-12-07T09:38:17;7.80;99.70
12604;DHT22;6367;52.508;13.284;2022-12-07T09:40:43;7.80;99.50
12604;DHT22;6367;52.508;13.284;2022-12-07T09:43:19;7.90;99.40
12604;DHT22;6367;52.508;13.284;2022-12-07T09:45:48;7.90;99.20
12604;DHT22;6367;52.508;13.284;2022-12-07T09:48:21;7.80;99.30
12604;DHT22;6367;52.508;13.284;2022-12-07T09:50:49;7.70;99.60
12604;DHT22;6367;52.508;13.284;2022-12-07T09:53:36;8.40;99.90
12604;DHT22;6367;52.508;13.284;2022-12-07T09:56:03;7.90;99.70
12604;DHT22;6367;52.508;13.284;2022-12-07T09:58:30;7.90;99.60
12604;DHT22;6367;52.508;13.284;2022-12-07T10:03:32;7.80;99.80
12604;DHT22;6367;52.508;13.284;2022-12-07T10:05:58;7.90;99.80
12604;DHT22;6367;52.508;13.284;2022-12-07T10:08:25;8.40;99.90
12604;DHT22;6367;52.508;13.284;2022-12-07T10:10:53;8.50;99.90
12604;DHT22;6367;52.508;13.284;2022-12-07T10:13:35;7.90;99.90
12604;DHT22;6367;52.508;13.284;2022-12-07T10:16:01;7.90;99.90
12604;DHT22;6367;52.508;13.284;2022-12-07T10:21:11;7.90;99.90
12604;DHT22;6367;52.508;13.284;2022-12-07T10:23:52;7.90;99.90
12604;DHT22;6367;52.508;13.284;2022-12-07T10:26:31;7.90;99.90
12604;DHT22;6367;52.508;13.284;2022-12-07T10:29:00;7.90;99.70
12604;DHT22;6367;52.508;13.284;2022-12-07T10:31:27;7.80;99.70
12604;DHT22;6367;52.508;13.284;2022-12-07T10:33:55;7.80;99.60
12604;DHT22;6367;52.508;13.284;2022-12-07T10:36:33;7.90;99.70
12604;DHT22;6367;52.508;13.284;2022-12-07T10:39:15;7.90;99.80
12604;DHT22;6367;52.508;13.284;2022-12-07T10:42:03;7.90;99.90
12604;DHT22;6367;52.508;13.284;2022-12-07T10:44:31;8.00;99.90
12604;DHT22;6367;52.508;13.284;2022-12-07T10:49:38;8.00;99.90
12604;DHT22;6367;52.508;13.284;2022-12-07T10:55:22;8.10;99.90
12604;DHT22;6367;52.508;13.284;2022-12-07T10:57:56;8.10;99.90
12604;DHT22;6367;52.508;13.284;2022-12-07T11:00:34;8.10;99.90
12604;DHT22;6367;52.508;13.284;2022-12-07T11:06:37;8.10;99.90
12604;DHT22;6367;52.508;13.284;2022-12-07T11:11:56;8.00;99.90
12604;DHT22;6367;52.508;13.284;2022-12-07T11:38:14;8.30;99.90
12604;DHT22;6367;52.508;13.284;2022-12-07T11:40:45;8.30;99.90
12604;DHT22;6367;52.508;13.284;2022-12-07T11:43:24;8.30;99.90
12604;DHT22;6367;52.508;13.284;2022-12-07T11:48:41;8.40;99.90
12604;DHT22;6367;52.508;13.284;2022-12-07T11:51:11;8.20;99.90
12604;DHT22;6367;52.508;13.284;2022-12-07T11:53:48;8.20;99.90
12604;DHT22;6367;52.508;13.284;2022-12-07T11:56:27;8.30;99.90
12604;DHT22;6367;52.508;13.284;2022-12-07T11:59:02;8.30;99.90
12604;DHT22;6367;52.508;13.284;2022-12-07T12:06:34;8.70;99.90
12604;DHT22;6367;52.508;13.284;2022-12-07T12:09:04;8.40;99.90
12604;DHT22;6367;52.508;13.284;2022-12-07T12:11:36;8.40;99.90
12604;DHT22;6367;52.508;13.284;2022-12-07T12:17:30;8.40;99.90
12604;DHT22;6367;52.508;13.284;2022-12-07T12:25:54;8.60;99.90
12604;DHT22;6367;52.508;13.284;2022-12-07T12:31:15;8.60;99.90
12604;DHT22;6367;52.508;13.284;2022-12-07T12:33:48;8.50;99.90
12604;DHT22;6367;52.508;13.284;2022-12-07T12:52:54;8.50;99.90
12604;DHT22;6367;52.508;13.284;2022-12-07T12:55:29;8.50;99.90
12604;DHT22;6367;52.508;13.284;2022-12-07T13:00:46;8.50;99.90
12604;DHT22;6367;52.508;13.284;2022-12-07T13:03:30;8.70;99.90
12604;DHT22;6367;52.508;13.284;2022-12-07T13:08:52;8.50;99.90
12604;DHT22;6367;52.508;13.284;2022-12-07T13:11:37;8.50;99.90
12604;DHT22;6367;52.508;13.284;2022-12-07T13:20:02;8.60;99.90
12604;DHT22;6367;52.508;13.284;2022-12-07T13:27:37;8.70;99.90
12604;DHT22;6367;52.508;13.284;2022-12-07T13:30:15;8.60;99.90
12604;DHT22;6367;52.508;13.284;2022-12-07T13:32:41;8.60;99.90
12604;DHT22;6367;52.508;13.284;2022-12-07T13:35:30;9.30;99.90
12604;DHT22;6367;52.508;13.284;2022-12-07T13:37:56;8.60;99.90
12604;DHT22;6367;52.508;13.284;2022-12-07T13:40:23;8.60;99.90
12604;DHT22;6367;52.508;13.284;2022-12-07T13:42:57;8.60;99.90
12604;DHT22;6367;52.508;13.284;2022-12-07T13:45:32;8.60;99.90
12604;DHT22;6367;52.508;13.284;2022-12-07T13:48:34;8.60;99.90
12604;DHT22;6367;52.508;13.284;2022-12-07T13:51:03;8.70;99.90
12604;DHT22;6367;52.508;13.284;2022-12-07T13:53:29;8.50;99.90
12604;DHT22;6367;52.508;13.284;2022-12-07T13:56:00;8.60;99.90
12604;DHT22;6367;52.508;13.284;2022-12-07T13:58:29;8.70;99.90
12604;DHT22;6367;52.508;13.284;2022-12-07T14:00:55;8.60;99.90
12604;DHT22;6367;52.508;13.284;2022-12-07T14:03:33;8.50;99.90
12604;DHT22;6367;52.508;13.284;2022-12-07T14:06:16;8.50;99.90
12604;DHT22;6367;52.508;13.284;2022-12-07T14:08:43;8.50;99.90
12604;DHT22;6367;52.508;13.284;2022-12-07T14:11:19;8.50;99.90
12604;DHT22;6367;52.508;13.284;2022-12-07T14:16:34;8.50;99.90
12604;DHT22;6367;52.508;13.284;2022-12-07T14:19:05;8.60;99.90
12604;DHT22;6367;52.508;13.284;2022-12-07T14:21:34;8.60;99.90
12604;DHT22;6367;52.508;13.284;2022-12-07T14:26:35;8.50;99.90
12604;DHT22;6367;52.508;13.284;2022-12-07T14:31:55;8.40;99.90
12604;DHT22;6367;52.508;13.284;2022-12-07T14:34:22;8.30;99.90
12604;DHT22;6367;52.508;13.284;2022-12-07T14:36:48;8.40;99.90
12604;DHT22;6367;52.508;13.284;2022-12-07T14:39:13;8.40;99.90
12604;DHT22;6367;52.508;13.284;2022-12-07T14:41:39;8.40;99.90
12604;DHT22;6367;52.508;13.284;2022-12-07T14:44:22;8.40;99.90
12604;DHT22;6367;52.508;13.284;2022-12-07T14:46:48;8.40;99.90
12604;DHT22;6367;52.508;13.284;2022-12-07T14:49:15;9.00;99.90
12604;DHT22;6367;52.508;13.284;2022-12-07T14:51:42;8.40;99.90
12604;DHT22;6367;52.508;13.284;2022-12-07T14:54:15;8.30;99.90
12604;DHT22;6367;52.508;13.284;2022-12-07T14:56:42;8.80;99.90
12604;DHT22;6367;52.508;13.284;2022-12-07T14:59:09;8.30;99.90
12604;DHT22;6367;52.508;13.284;2022-12-07T15:01:35;8.30;99.90
12604;DHT22;6367;52.508;13.284;2022-12-07T15:04:00;8.20;99.90
12604;DHT22;6367;52.508;13.284;2022-12-07T15:06:26;8.30;99.90
12604;DHT22;6367;52.508;13.284;2022-12-07T15:08:52;8.20;99.90
12604;DHT22;6367;52.508;13.284;2022-12-07T15:11:18;8.10;99.90
12604;DHT22;6367;52.508;13.284;2022-12-07T15:13:43;8.10;99.90
12604;DHT22;6367;52.508;13.284;2022-12-07T15:16:27;8.00;99.90
12604;DHT22;6367;52.508;13.284;2022-12-07T15:18:53;7.90;99.90
12604;DHT22;6367;52.508;13.284;2022-12-07T15:21:19;8.20;99.90
12604;DHT22;6367;52.508;13.284;2022-12-07T15:23:46;7.90;99.90
12604;DHT22;6367;52.508;13.284;2022-12-07T15:26:12;8.00;99.90
12604;DHT22;6367;52.508;13.284;2022-12-07T15:28:39;7.80;99.90
12604;DHT22;6367;52.508;13.284;2022-12-07T15:31:16;7.90;99.90
12604;DHT22;6367;52.508;13.284;2022-12-07T15:33:42;7.90;99.90
12604;DHT22;6367;52.508;13.284;2022-12-07T15:36:08;7.90;99.90
12604;DHT22;6367;52.508;13.284;2022-12-07T15:38:37;7.90;99.90
12604;DHT22;6367;52.508;13.284;2022-12-07T15:41:02;7.90;99.90
12604;DHT22;6367;52.508;13.284;2022-12-07T15:43:28;7.90;99.90
12604;DHT22;6367;52.508;13.284;2022-12-07T15:46:12;8.00;99.90
12604;DHT22;6367;52.508;13.284;2022-12-07T15:48:40;8.00;99.90
12604;DHT22;6367;52.508;13.284;2022-12-07T15:51:08;8.00;99.90
12604;DHT22;6367;52.508;13.284;2022-12-07T15:53:35;8.50;99.90
12604;DHT22;6367;52.508;13.284;2022-12-07T15:56:01;8.40;99.90
12604;DHT22;6367;52.508;13.284;2022-12-07T15:58:27;8.00;99.90
12604;DHT22;6367;52.508;13.284;2022-12-07T16:00:53;7.90;99.90
12604;DHT22;6367;52.508;13.284;2022-12-07T16:03:19;7.90;99.90
12604;DHT22;6367;52.508;13.284;2022-12-07T16:05:52;7.90;99.90
12604;DHT22;6367;52.508;13.284;2022-12-07T16:08:18;7.90;99.90
12604;DHT22;6367;52.508;13.284;2022-12-07T16:10:45;7.80;99.90
12604;DHT22;6367;52.508;13.284;2022-12-07T16:13:11;7.90;99.90
12604;DHT22;6367;52.508;13.284;2022-12-07T16:15:40;7.80;99.90
12604;DHT22;6367;52.508;13.284;2022-12-07T16:18:06;7.70;99.90
12604;DHT22;6367;52.508;13.284;2022-12-07T16:20:32;7.70;99.90
12604;DHT22;6367;52.508;13.284;2022-12-07T16:22:58;7.70;99.90
12604;DHT22;6367;52.508;13.284;2022-12-07T16:25:24;7.70;99.90
12604;DHT22;6367;52.508;13.284;2022-12-07T16:27:50;7.60;99.90
12604;DHT22;6367;52.508;13.284;2022-12-07T16:30:16;7.70;99.90
12604;DHT22;6367;52.508;13.284;2022-12-07T16:32:41;7.60;99.90
12604;DHT22;6367;52.508;13.284;2022-12-07T16:35:08;7.50;99.90
12604;DHT22;6367;52.508;13.284;2022-12-07T16:37:34;7.50;99.90
12604;DHT22;6367;52.508;13.284;2022-12-07T16:40:00;8.20;99.90
12604;DHT22;6367;52.508;13.284;2022-12-07T16:42:26;7.50;99.90
12604;DHT22;6367;52.508;13.284;2022-12-07T16:44:52;7.50;99.90
12604;DHT22;6367;52.508;13.284;2022-12-07T16:47:17;7.50;99.90
12604;DHT22;6367;52.508;13.284;2022-12-07T16:49:43;7.50;99.90
12604;DHT22;6367;52.508;13.284;2022-12-07T16:52:09;7.90;99.90
12604;DHT22;6367;52.508;13.284;2022-12-07T16:54:35;7.50;99.90
12604;DHT22;6367;52.508;13.284;2022-12-07T16:57:01;7.60;99.90
12604;DHT22;6367;52.508;13.284;2022-12-07T16:59:27;7.50;99.90
12604;DHT22;6367;52.508;13.284;2022-12-07T17:01:52;7.50;99.90
12604;DHT22;6367;52.508;13.284;2022-12-07T17:04:18;7.40;99.90
12604;DHT22;6367;52.508;13.284;2022-12-07T17:06:44;7.40;99.90
12604;DHT22;6367;52.508;13.284;2022-12-07T17:09:09;7.50;99.90
12604;DHT22;6367;52.508;13.284;2022-12-07T17:11:37;7.80;99.90
12604;DHT22;6367;52.508;13.284;2022-12-07T17:14:03;7.50;99.90
12604;DHT22;6367;52.508;13.284;2022-12-07T17:16:47;7.60;99.90
12604;DHT22;6367;52.508;13.284;2022-12-07T17:19:15;7.40;99.90
12604;DHT22;6367;52.508;13.284;2022-12-07T17:21:42;7.40;99.90
12604;DHT22;6367;52.508;13.284;2022-12-07T17:24:09;7.40;99.90
12604;DHT22;6367;52.508;13.284;2022-12-07T17:26:35;7.40;99.90
12604;DHT22;6367;52.508;13.284;2022-12-07T17:29:04;7.90;99.90
12604;DHT22;6367;52.508;13.284;2022-12-07T17:31:30;7.30;99.90
12604;DHT22;6367;52.508;13.284;2022-12-07T17:33:57;7.30;99.90
12604;DHT22;6367;52.508;13.284;2022-12-07T17:36:26;7.30;99.90
12604;DHT22;6367;52.508;13.284;2022-12-07T17:38:52;7.40;99.90
12604;DHT22;6367;52.508;13.284;2022-12-07T17:41:21;7.30;99.90
12604;DHT22;6367;52.508;13.284;2022-12-07T17:44:08;7.30;99.90
12604;DHT22;6367;52.508;13.284;2022-12-07T17:46:34;7.30;99.90
12604;DHT22;6367;52.508;13.284;2022-12-07T17:49:02;7.20;99.90
12604;DHT22;6367;52.508;13.284;2022-12-07T17:51:29;7.30;99.90
12604;DHT22;6367;52.508;13.284;2022-12-07T17:54:13;7.20;99.90
12604;DHT22;6367;52.508;13.284;2022-12-07T17:56:39;7.10;99.90
12604;DHT22;6367;52.508;13.284;2022-12-07T17:59:05;7.20;99.90